Meath Environmental Platform

Observations for Trim Patrick St

Time AQI Temp °C Hum % Pres Pa CO μg/m³ H₂S μg/m³ NO μg/m³ NO₂ μg/m³ O₃ μg/m³ SO₂ μg/m³ PM1 μg/m³ PM2.5 μg/m³ PM10 μg/m³
Thursday 27 August 2026
22:05 3 17.8 86 38,460 0.14 3.08 0.99 13.75 38.43 0.08 19.14 27.5 27.54
22:04 3 17.8 86 38,460 0.14 3.23 1.03 13.6 37.51 0.36 20 28.2 28.22
22:03 3 17.8 86 38,460 0.13 3.34 0.91 13.6 37.51 0.27 19.14 26.83 29.51
22:02 3 17.8 86 38,460 0.14 3.23 0.84 13.49 39.44 0 20 28.2 29.51
22:01 3 17.8 86 38,460 0.13 3.47 0.9 17.42 34.11 0 20 28.89 31.78
22:00 3 17.8 86 38,460 0.13 2.68 0.96 13.49 40.63 0.05 20 29.58 32.53
21:59 3 17.8 86 38,460 0.13 2.89 1.06 14.22 39.87 0 20.86 28.2 31.02
21:58 3 17.8 86 38,460 0.14 3.37 1.01 14.96 36.6 0.17 20 29.58 32.53
21:57 3 17.8 86 38,460 0.12 3.92 1.24 16.42 37.39 0 20 28.9 30.19
21:56 3 17.8 86 38,460 0.12 3.57 1.31 15.78 37.37 0 19.14 26.84 29.52
21:55 3 17.8 86 38,460 0.13 2.95 1.32 15.48 36.67 0 20 28.9 31.79
21:54 3 17.8 86 38,460 0.11 2.82 1.17 14.02 38.81 0 18.29 26.15 28.77
21:53 3 17.8 86 38,460 0.11 3.16 1.37 14.02 41.96 0 20.86 28.21 31.04
21:52 3 17.8 86 38,460 0.11 3.37 1.21 14.93 35.09 0 16.57 22.03 24.23
21:51 3 17.8 86 38,460 0.12 3.29 1.08 13.83 40.85 0 20 26.16 28.78
21:50 3 17.8 86 38,460 0.12 3.23 1.16 14.66 37.73 0.19 20 28.9 31.79
21:49 3 17.8 86 38,460 0.11 3.6 1.08 13.99 39.72 0.19 18.29 26.16 28.78
21:48 3 17.8 86 38,460 0.13 3.44 1.1 13.99 40.82 0.02 19.14 27.54 30.29
21:47 3 17.8 86 38,460 0.12 3.63 1.03 13.83 39.77 0 20 28.23 31.05
21:44 3 17.8 86 38,460 0.12 3.52 1.03 14.14 38.9 0.16 19.14 26.87 27.66